Wilson Creek (Missouri), Battlefield (07052160)

StateMissouriCurrentPotential (79 cfs)
RiverWilson CreekFlood - The river is flooding. Obstacles can be treacherous or deadly. The river should be avoided at this stage for casual trips and definitely for the inexperienced. Trips should be attempted only with protective gear and equipment.Flood(none)
Updated2019-12-13 19:30 (1 hour ago)High - The river is high and potentially dangerous, especially for the young and / or inexperienced. Normal stream obstacles are sometimes difficult to navigate. Extended distances can be attempted, but canoe travel may not be advisable.High(none)
Discharge79 cfs (median: 73 cfs)Good - Conditions are ideal for a canoe or kayak. Boats typically will drag on fewer than one-quarter of riffles, if at all, and portages are unnecessary or rare. Normal float lengths can be attempted without a problem.Good(none)
Height2.47 feetLow - River is low but can still be floated. Some riffles are okay but most come with significant dragging and might need a portage. Float lengths should be reduced to accommodate low flow, dragging, and portages.Low(none)
TrendRising (steady over 24 hours)Poor - River is too low to float comfortably. Most or all riffles will drag or must be portaged and some obstacles (such as slick shelf rock) cause undue problems. Avoid the river at this stage for casual paddling trips.Poor(none)
USGSExternal icon USGS Site for Battlefield (07052160)LocationExternal icon Google Maps

Trending Data

Plot Image
ObservationHeightDischargeMaximum
Discharge
Minimum
Discharge
Mean
Discharge
P05P10P20P25P50
(Median)
P75P80P90P95
2019-12-13 19:30 2.47 79 142 (1974) 21 (1977) 72 29 35 37 73 102 105 120
2019-12-13 18:30 2.43 72 142 (1974) 21 (1977) 72 29 35 37 73 102 105 120
2019-12-13 17:30 2.45 76 142 (1974) 21 (1977) 72 29 35 37 73 102 105 120
2019-12-13 16:30 2.45 76 142 (1974) 21 (1977) 72 29 35 37 73 102 105 120
2019-12-13 15:30 2.45 76 142 (1974) 21 (1977) 72 29 35 37 73 102 105 120
2019-12-13 14:30 2.42 71 142 (1974) 21 (1977) 72 29 35 37 73 102 105 120
2019-12-13 13:30 2.43 72 142 (1974) 21 (1977) 72 29 35 37 73 102 105 120
2019-12-13 12:30 2.43 72 142 (1974) 21 (1977) 72 29 35 37 73 102 105 120
2019-12-12 21:30 2.45 76 147 (2000) 21 (1977) 78 31 39 41 67 105 121 147
2019-12-12 20:30 2.45 76 147 (2000) 21 (1977) 78 31 39 41 67 105 121 147
2019-12-12 19:30 2.44 74 147 (2000) 21 (1977) 78 31 39 41 67 105 121 147
2019-12-12 18:30 2.47 79 147 (2000) 21 (1977) 78 31 39 41 67 105 121 147
2019-12-12 17:30 2.47 79 147 (2000) 21 (1977) 78 31 39 41 67 105 121 147
2019-12-12 16:30 2.45 76 147 (2000) 21 (1977) 78 31 39 41 67 105 121 147
2019-12-12 15:30 2.46 78 147 (2000) 21 (1977) 78 31 39 41 67 105 121 147
2019-12-12 14:30 2.44 74 147 (2000) 21 (1977) 78 31 39 41 67 105 121 147
2019-12-12 13:30 2.46 78 147 (2000) 21 (1977) 78 31 39 41 67 105 121 147
2019-12-12 12:30 2.46 78 147 (2000) 21 (1977) 78 31 39 41 67 105 121 147
2019-12-12 11:30 2.48 81 147 (2000) 21 (1977) 78 31 39 41 67 105 121 147
2019-12-12 10:30 2.46 78 147 (2000) 21 (1977) 78 31 39 41 67 105 121 147
2019-12-12 09:30 2.43 72 147 (2000) 21 (1977) 78 31 39 41 67 105 121 147
2019-12-12 08:30 2.43 72 147 (2000) 21 (1977) 78 31 39 41 67 105 121 147
2019-12-12 07:30 2.43 72 147 (2000) 21 (1977) 78 31 39 41 67 105 121 147
2019-12-12 06:30 2.44 74 147 (2000) 21 (1977) 78 31 39 41 67 105 121 147
2019-12-12 05:30 2.45 76 147 (2000) 21 (1977) 78 31 39 41 67 105 121 147
2019-12-12 04:30 2.47 79 147 (2000) 21 (1977) 78 31 39 41 67 105 121 147
2019-12-12 03:30 2.48 81 147 (2000) 21 (1977) 78 31 39 41 67 105 121 147
2019-12-12 02:30 2.51 87 147 (2000) 21 (1977) 78 31 39 41 67 105 121 147
2019-12-12 01:30 2.51 87 147 (2000) 21 (1977) 78 31 39 41 67 105 121 147
2019-12-12 00:30 2.51 87 147 (2000) 21 (1977) 78 31 39 41 67 105 121 147
2019-12-11 23:30 2.49 83 180 (2000) 22 (1977) 77 31 43 46 60 108 122 152
2019-12-11 22:30 2.48 81 180 (2000) 22 (1977) 77 31 43 46 60 108 122 152
2019-12-11 21:30 2.47 79 180 (2000) 22 (1977) 77 31 43 46 60 108 122 152
2019-12-11 20:30 2.47 79 180 (2000) 22 (1977) 77 31 43 46 60 108 122 152
2019-12-11 19:30 2.45 76 180 (2000) 22 (1977) 77 31 43 46 60 108 122 152
2019-12-11 18:30 2.48 81 180 (2000) 22 (1977) 77 31 43 46 60 108 122 152
2019-12-11 17:30 2.50 85 180 (2000) 22 (1977) 77 31 43 46 60 108 122 152
2019-12-11 16:30 2.49 83 180 (2000) 22 (1977) 77 31 43 46 60 108 122 152
2019-12-11 15:30 2.50 85 180 (2000) 22 (1977) 77 31 43 46 60 108 122 152
2019-12-11 14:30 2.52 89 180 (2000) 22 (1977) 77 31 43 46 60 108 122 152
2019-12-11 13:30 2.51 87 180 (2000) 22 (1977) 77 31 43 46 60 108 122 152
2019-12-11 12:30 2.50 85 180 (2000) 22 (1977) 77 31 43 46 60 108 122 152
2019-12-11 11:30 2.48 81 180 (2000) 22 (1977) 77 31 43 46 60 108 122 152
2019-12-11 10:30 2.47 79 180 (2000) 22 (1977) 77 31 43 46 60 108 122 152
2019-12-11 09:30 2.46 78 180 (2000) 22 (1977) 77 31 43 46 60 108 122 152
2019-12-11 08:30 2.45 76 180 (2000) 22 (1977) 77 31 43 46 60 108 122 152
2019-12-11 07:30 2.44 74 180 (2000) 22 (1977) 77 31 43 46 60 108 122 152
2019-12-11 06:30 2.43 72 180 (2000) 22 (1977) 77 31 43 46 60 108 122 152
2019-12-11 05:30 2.45 76 180 (2000) 22 (1977) 77 31 43 46 60 108 122 152
2019-12-11 04:30 2.46 78 180 (2000) 22 (1977) 77 31 43 46 60 108 122 152
2019-12-11 03:30 2.47 79 180 (2000) 22 (1977) 77 31 43 46 60 108 122 152
2019-12-11 02:30 2.48 81 180 (2000) 22 (1977) 77 31 43 46 60 108 122 152
2019-12-11 01:30 2.52 89 180 (2000) 22 (1977) 77 31 43 46 60 108 122 152
2019-12-11 00:30 2.54 92 180 (2000) 22 (1977) 77 31 43 46 60 108 122 152
2019-12-10 23:30 2.53 90 455 (2000) 23 (1977) 96 30 36 39 55 100 122 262
2019-12-10 22:30 2.53 90 455 (2000) 23 (1977) 96 30 36 39 55 100 122 262
2019-12-10 21:30 2.53 90 455 (2000) 23 (1977) 96 30 36 39 55 100 122 262
2019-12-10 20:30 2.53 90 455 (2000) 23 (1977) 96 30 36 39 55 100 122 262
2019-12-10 19:30 2.54 92 455 (2000) 23 (1977) 96 30 36 39 55 100 122 262
2019-12-10 18:30 2.52 89 455 (2000) 23 (1977) 96 30 36 39 55 100 122 262
2019-12-10 17:30 2.53 90 455 (2000) 23 (1977) 96 30 36 39 55 100 122 262
2019-12-10 16:30 2.54 92 455 (2000) 23 (1977) 96 30 36 39 55 100 122 262
2019-12-10 15:30 2.53 90 455 (2000) 23 (1977) 96 30 36 39 55 100 122 262
2019-12-10 14:30 2.54 92 455 (2000) 23 (1977) 96 30 36 39 55 100 122 262
2019-12-10 13:30 2.53 90 455 (2000) 23 (1977) 96 30 36 39 55 100 122 262
2019-12-10 12:30 2.51 87 455 (2000) 23 (1977) 96 30 36 39 55 100 122 262
2019-12-10 11:30 2.51 87 455 (2000) 23 (1977) 96 30 36 39 55 100 122 262
2019-12-10 10:30 2.49 83 455 (2000) 23 (1977) 96 30 36 39 55 100 122 262
2019-12-10 09:30 2.47 79 455 (2000) 23 (1977) 96 30 36 39 55 100 122 262
2019-12-10 08:30 2.47 79 455 (2000) 23 (1977) 96 30 36 39 55 100 122 262
2019-12-10 07:30 2.47 79 455 (2000) 23 (1977) 96 30 36 39 55 100 122 262
2019-12-10 06:30 2.49 83 455 (2000) 23 (1977) 96 30 36 39 55 100 122 262
2019-12-10 05:30 2.50 85 455 (2000) 23 (1977) 96 30 36 39 55 100 122 262
2019-12-10 04:30 2.49 83 455 (2000) 23 (1977) 96 30 36 39 55 100 122 262
2019-12-10 03:30 2.49 83 455 (2000) 23 (1977) 96 30 36 39 55 100 122 262
2019-12-10 02:30 2.50 85 455 (2000) 23 (1977) 96 30 36 39 55 100 122 262
2019-12-10 01:30 2.52 89 455 (2000) 23 (1977) 96 30 36 39 55 100 122 262
2019-12-10 00:30 2.52 89 455 (2000) 23 (1977) 96 30 36 39 55 100 122 262
2019-12-09 23:30 2.52 89 335 (2000) 23 (1977) 87 28 35 40 66 106 125 190
2019-12-09 22:30 2.53 90 335 (2000) 23 (1977) 87 28 35 40 66 106 125 190
2019-12-09 21:30 2.53 90 335 (2000) 23 (1977) 87 28 35 40 66 106 125 190
2019-12-09 20:30 2.52 89 335 (2000) 23 (1977) 87 28 35 40 66 106 125 190
2019-12-09 19:30 2.53 90 335 (2000) 23 (1977) 87 28 35 40 66 106 125 190
2019-12-09 18:30 2.54 92 335 (2000) 23 (1977) 87 28 35 40 66 106 125 190
2019-12-09 17:30 2.58 100 335 (2000) 23 (1977) 87 28 35 40 66 106 125 190
2019-12-09 16:30 2.58 100 335 (2000) 23 (1977) 87 28 35 40 66 106 125 190
2019-12-09 15:30 2.55 94 335 (2000) 23 (1977) 87 28 35 40 66 106 125 190
2019-12-09 14:30 2.53 90 335 (2000) 23 (1977) 87 28 35 40 66 106 125 190
2019-12-09 13:30 2.55 94 335 (2000) 23 (1977) 87 28 35 40 66 106 125 190
2019-12-09 12:30 2.55 94 335 (2000) 23 (1977) 87 28 35 40 66 106 125 190
2019-12-09 11:30 2.53 90 335 (2000) 23 (1977) 87 28 35 40 66 106 125 190
2019-12-09 10:30 2.52 89 335 (2000) 23 (1977) 87 28 35 40 66 106 125 190
2019-12-09 09:30 2.50 85 335 (2000) 23 (1977) 87 28 35 40 66 106 125 190
2019-12-09 08:30 2.50 85 335 (2000) 23 (1977) 87 28 35 40 66 106 125 190
2019-12-09 07:30 2.50 85 335 (2000) 23 (1977) 87 28 35 40 66 106 125 190
2019-12-09 06:30 2.52 89 335 (2000) 23 (1977) 87 28 35 40 66 106 125 190
2019-12-09 05:30 2.53 90 335 (2000) 23 (1977) 87 28 35 40 66 106 125 190
2019-12-09 04:30 2.55 94 335 (2000) 23 (1977) 87 28 35 40 66 106 125 190
2019-12-09 03:30 2.56 96 335 (2000) 23 (1977) 87 28 35 40 66 106 125 190
2019-12-09 02:30 2.57 98 335 (2000) 23 (1977) 87 28 35 40 66 106 125 190
2019-12-09 01:30 2.56 96 335 (2000) 23 (1977) 87 28 35 40 66 106 125 190
2019-12-09 00:30 2.56 96 335 (2000) 23 (1977) 87 28 35 40 66 106 125 190
2019-12-08 23:30 2.56 96 195 (1974) 23 (1977) 77 31 38 43 68 98 110 155
2019-12-08 22:30 2.56 96 195 (1974) 23 (1977) 77 31 38 43 68 98 110 155
2019-12-08 21:30 2.55 94 195 (1974) 23 (1977) 77 31 38 43 68 98 110 155
2019-12-08 20:30 2.56 96 195 (1974) 23 (1977) 77 31 38 43 68 98 110 155
2019-12-08 19:30 2.57 98 195 (1974) 23 (1977) 77 31 38 43 68 98 110 155
2019-12-08 18:30 2.57 98 195 (1974) 23 (1977) 77 31 38 43 68 98 110 155
2019-12-08 17:30 2.56 96 195 (1974) 23 (1977) 77 31 38 43 68 98 110 155
2019-12-08 16:30 2.57 98 195 (1974) 23 (1977) 77 31 38 43 68 98 110 155
2019-12-08 15:30 2.57 98 195 (1974) 23 (1977) 77 31 38 43 68 98 110 155
2019-12-08 14:30 2.57 98 195 (1974) 23 (1977) 77 31 38 43 68 98 110 155
2019-12-08 13:30 2.55 94 195 (1974) 23 (1977) 77 31 38 43 68 98 110 155
2019-12-08 12:30 2.55 94 195 (1974) 23 (1977) 77 31 38 43 68 98 110 155
2019-12-08 11:30 2.53 90 195 (1974) 23 (1977) 77 31 38 43 68 98 110 155
2019-12-08 10:30 2.53 90 195 (1974) 23 (1977) 77 31 38 43 68 98 110 155
2019-12-08 09:30 2.52 89 195 (1974) 23 (1977) 77 31 38 43 68 98 110 155
2019-12-08 08:30 2.53 90 195 (1974) 23 (1977) 77 31 38 43 68 98 110 155
2019-12-08 07:30 2.54 92 195 (1974) 23 (1977) 77 31 38 43 68 98 110 155
2019-12-08 06:30 2.55 94 195 (1974) 23 (1977) 77 31 38 43 68 98 110 155
2019-12-08 05:30 2.55 94 195 (1974) 23 (1977) 77 31 38 43 68 98 110 155
2019-12-08 04:30 2.57 98 195 (1974) 23 (1977) 77 31 38 43 68 98 110 155
2019-12-08 03:30 2.59 102 195 (1974) 23 (1977) 77 31 38 43 68 98 110 155
2019-12-08 02:30 2.60 105 195 (1974) 23 (1977) 77 31 38 43 68 98 110 155
2019-12-08 01:30 2.60 105 195 (1974) 23 (1977) 77 31 38 43 68 98 110 155
2019-12-08 00:30 2.59 102 195 (1974) 23 (1977) 77 31 38 43 68 98 110 155
2019-12-07 23:30 2.58 100 224 (1974) 33 (1977) 78 33 41 43 67 101 107 166
2019-12-07 22:30 2.58 100 224 (1974) 33 (1977) 78 33 41 43 67 101 107 166
2019-12-07 21:30 2.59 102 224 (1974) 33 (1977) 78 33 41 43 67 101 107 166
2019-12-07 20:30 2.59 102 224 (1974) 33 (1977) 78 33 41 43 67 101 107 166
2019-12-07 19:30 2.59 102 224 (1974) 33 (1977) 78 33 41 43 67 101 107 166
2019-12-07 18:30 2.58 100 224 (1974) 33 (1977) 78 33 41 43 67 101 107 166
2019-12-07 17:30 2.60 105 224 (1974) 33 (1977) 78 33 41 43 67 101 107 166
2019-12-07 16:30 2.60 105 224 (1974) 33 (1977) 78 33 41 43 67 101 107 166
2019-12-07 15:30 2.58 100 224 (1974) 33 (1977) 78 33 41 43 67 101 107 166
2019-12-07 14:30 2.58 100 224 (1974) 33 (1977) 78 33 41 43 67 101 107 166
2019-12-07 13:30 2.58 100 224 (1974) 33 (1977) 78 33 41 43 67 101 107 166
2019-12-07 12:30 2.57 98 224 (1974) 33 (1977) 78 33 41 43 67 101 107 166
2019-12-07 11:30 2.57 98 224 (1974) 33 (1977) 78 33 41 43 67 101 107 166
2019-12-07 10:30 2.57 98 224 (1974) 33 (1977) 78 33 41 43 67 101 107 166
2019-12-07 09:30 2.57 98 224 (1974) 33 (1977) 78 33 41 43 67 101 107 166
2019-12-07 08:30 2.57 98 224 (1974) 33 (1977) 78 33 41 43 67 101 107 166
2019-12-07 07:30 2.58 100 224 (1974) 33 (1977) 78 33 41 43 67 101 107 166
2019-12-07 06:30 2.59 102 224 (1974) 33 (1977) 78 33 41 43 67 101 107 166
2019-12-07 05:30 2.60 105 224 (1974) 33 (1977) 78 33 41 43 67 101 107 166
2019-12-07 04:30 2.61 107 224 (1974) 33 (1977) 78 33 41 43 67 101 107 166
2019-12-07 03:30 2.60 105 224 (1974) 33 (1977) 78 33 41 43 67 101 107 166
2019-12-07 02:30 2.60 105 224 (1974) 33 (1977) 78 33 41 43 67 101 107 166
2019-12-07 01:30 2.61 107 224 (1974) 33 (1977) 78 33 41 43 67 101 107 166
2019-12-07 00:30 2.61 107 224 (1974) 33 (1977) 78 33 41 43 67 101 107 166
2019-12-06 23:30 2.62 109 291 (1974) 36 (2018) 93 40 44 49 64 117 132 208
2019-12-06 22:30 2.63 111 291 (1974) 36 (2018) 93 40 44 49 64 117 132 208
2019-12-06 21:30 2.63 111 291 (1974) 36 (2018) 93 40 44 49 64 117 132 208
2019-12-06 20:30 2.62 109 291 (1974) 36 (2018) 93 40 44 49 64 117 132 208
2019-12-06 19:30 2.64 113 291 (1974) 36 (2018) 93 40 44 49 64 117 132 208
2019-12-06 18:30 2.68 122 291 (1974) 36 (2018) 93 40 44 49 64 117 132 208
2019-12-06 17:30 2.68 122 291 (1974) 36 (2018) 93 40 44 49 64 117 132 208
2019-12-06 16:30 2.67 120 291 (1974) 36 (2018) 93 40 44 49 64 117 132 208
2019-12-06 15:30 2.68 122 291 (1974) 36 (2018) 93 40 44 49 64 117 132 208
2019-12-06 14:30 2.67 120 291 (1974) 36 (2018) 93 40 44 49 64 117 132 208
2019-12-06 13:30 2.66 118 291 (1974) 36 (2018) 93 40 44 49 64 117 132 208
2019-12-06 12:30 2.65 116 291 (1974) 36 (2018) 93 40 44 49 64 117 132 208
2019-12-06 11:30 2.64 113 291 (1974) 36 (2018) 93 40 44 49 64 117 132 208
2019-12-06 10:30 2.62 109 291 (1974) 36 (2018) 93 40 44 49 64 117 132 208
2019-12-06 09:30 2.61 107 291 (1974) 36 (2018) 93 40 44 49 64 117 132 208
2019-12-06 08:30 2.61 107 291 (1974) 36 (2018) 93 40 44 49 64 117 132 208
2019-12-06 07:30 2.62 109 291 (1974) 36 (2018) 93 40 44 49 64 117 132 208
2019-12-06 06:30 2.62 109 291 (1974) 36 (2018) 93 40 44 49 64 117 132 208
2019-12-06 05:30 2.64 113 291 (1974) 36 (2018) 93 40 44 49 64 117 132 208
2019-12-06 04:30 2.62 109 291 (1974) 36 (2018) 93 40 44 49 64 117 132 208
2019-12-06 03:30 2.64 113 291 (1974) 36 (2018) 93 40 44 49 64 117 132 208
2019-12-06 02:30 2.66 118 291 (1974) 36 (2018) 93 40 44 49 64 117 132 208
2019-12-06 01:30 2.68 122 291 (1974) 36 (2018) 93 40 44 49 64 117 132 208
2019-12-06 00:30 2.69 125 291 (1974) 36 (2018) 93 40 44 49 64 117 132 208

A total of 174 rows are displayed for years 1969 through 2018.

Trips for Wilson Creek (Missouri), Battlefield (07052160)

DateStartEndDistanceConditionDischargeHeightFishingDetails

A total of 0 rows are displayed.

Condition Descriptions

Fishing Conditions

Fish Species

Notes

Classic Trip List

The classic River Trips application is still available for use. It is updated with the new system using a data retrofit. It is no longer maintained. The original River Trips application is no longer updated (as of 1 Dec 2016) but can be checked for errors or for the condition of the data before it was converted to the new system.